Second Mesa, Arizona
Current Conditions -  °F | °C
As of 3:56 AM on Friday 31 Oct 2014 (Local Time) from KINW Reporting Station
Clear Clear  
Wind Chill: 42°   Ceiling: Unl
Heat Index: 46°   Visibility: 10mi
Dew Point: 27°   Wind: 7mph
Humidity: 47%   Direction: 130°SE
Pressure: 30.18"   Gusts: NA
Location:  35.82°N, 110.5°W
Report Text: KINW 311056Z AUTO 13006KT 10SM CLR 08/M03 A3018 RMK AO2 SLP173 T00781028
Loading
Personal Weather Stations






























Interactive Weather Map
Tropical Storm Tracking
New forecast layout! Learn more

10-Day Weather Forecast

Advertisements
Track Severe Weather on mobile